Hauptseite
METAR-TAF:

METAR-TAF

Flughäfen :

Buochs, Schweiz

Flugplatz Buochs

Breite: 46-58-28N, Länge: 8-23-49E, Höhe: 449 m

Beobachtung

Neuester Wetterbericht von vor 23 Minuten, um 09:50 UTC
Wind 4 kt aus Ost/Nordost
Temperatur 17°C
Luftfeuchtigkeit 55%
Luftdruck 1028 hPa
Sichtweite 10 km oder mehr
keine Wolken unter 1500 m und keine Kumulonimbus oder Gewitterwolken

METAR: LSZC 190950Z 07004KT CAVOK 17/08 Q1028

Zeit: 12:13 (10:13 UTC)

Prognose

Neuester Wetterbericht von vor 1 Stunde und 48 Minuten, um 08:25 UTC
Gültige Prognose vom 19 um 09 UTC bis 19 um 18 UTC
Wind 3 kt aus unterschiedlichen Richtungen
Sichtweite 10 km oder mehr
keine Wolken unter 1500 m und keine Kumulonimbus oder Gewitterwolken

TAF: LSZC 190825Z 1909/1918 VRB03KT CAVOK

Wetterbeobachtungen und Prognosen von mehr als 4000 Flughäfen (METAR und TAF Bericht).

Die verfügbaren Stationen werden durch gelbe und rote Markierungen auf der Karte dargestellt.

Führen Sie die Maus auf sie, um den Namen der Station zu sehen.

Darauf klicken, um die Beobachtung von Wetterbeobachtungen und Prognosen zu sehen.

Um die Karte zu ändern : klicken Sie auf den grünen Tasten mit einem schwarzen Kreuz Zum Vergrößern, auf den grünen Button mit einem Gedankenstrich zu verkleinern, oder auf die grünen Pfeile für benachbarte Karten.


METAR-TAF: